Airfield :
LOGIN :

Register | Disclaimer

   EN    FR    IT 

 










Legend :    VFR   Marginal VFR   IFR   Intensive IFR   Very Intensive IFR
Visi :
Ceiling :
>= 8 km
>= 3000ft
5 to 8 km
1000 to 3000 ft
1500m to 5 km
500 to 1000 ft
800 to 1500m
200 to 500 ft
< 800m
< 200 ft
Symbols :   Thunderstorms  Fog  Heavy snow  Heavy precipitations  Wind > 20 kt
SIGMETs :     Misc.  Thunderstorms  Icing  Turbulence  Mountain Waves  Volcanic Ashes






- Airport Elevation : 1000 ft
- IATA code : PEV


LHPP - Pécs Pogany

CURRENT METAR :
  • 250715Z AUTO 32006KT CAVOK M06/M09 Q1033

EXPIRED METARs :
  • 250645Z AUTO VRB03KT CAVOK M08/M10 Q1033
  • 250615Z AUTO 28004KT CAVOK M08/M10 Q1033
  • 250545Z AUTO 27003KT 230V310 CAVOK M08/M10 Q1033
  • 250515Z AUTO VRB02KT CAVOK M08/M10 Q1034
  • 250445Z AUTO 26004KT 230V290 CAVOK M08/M11 Q1034

TAF TAF LHPP
Valid from the 25 at 06:00 until the 25 at 15:00 UTC


250515Z 2506/2515 28006KT CAVOK
TEMPO 2506/2508 VRB03KT 5000 BR
BECMG 2512/2515 BKN030



MET'MAP, your aeronautical weather chart ! - Copyright ORBIFLY December 2007 - Disclaimer

ORBIFLY MET'MAP TEAM :

Programming & Development : Alexandra Zaïnal
Original concept : Baudouin d'Aumeries
Technical & hardware support : Manuel Goepfert
Assistance : Marc-Olivier Méhu

Contact : metmap@orbifly.com




SOURCES & CREDITS :

   NOAA